createdAt,value
2018-03-29T00:00:16.112Z,993.55
2018-03-29T00:01:16.080Z,993.60
2018-03-29T00:02:16.047Z,993.58
2018-03-29T00:03:16.014Z,993.60
2018-03-29T00:04:15.981Z,993.60
2018-03-29T00:05:15.961Z,993.61
2018-03-29T00:06:15.916Z,993.61
2018-03-29T00:07:15.889Z,993.62
2018-03-29T00:08:15.850Z,993.59
2018-03-29T00:09:15.818Z,993.60
2018-03-29T00:10:15.785Z,993.60
2018-03-29T00:11:15.752Z,993.64
2018-03-29T00:12:15.718Z,993.63
2018-03-29T00:13:15.695Z,993.62
2018-03-29T00:14:15.654Z,993.61
2018-03-29T00:15:15.629Z,993.63
2018-03-29T00:16:15.588Z,993.67
2018-03-29T00:17:15.557Z,993.62
2018-03-29T00:18:15.523Z,993.59
2018-03-29T00:19:15.489Z,993.57
2018-03-29T00:20:15.465Z,993.58
2018-03-29T00:21:15.424Z,993.56
2018-03-29T00:22:15.396Z,993.59
2018-03-29T00:23:15.362Z,993.56
2018-03-29T00:24:15.329Z,993.59
2018-03-29T00:25:15.293Z,993.58
2018-03-29T00:26:15.261Z,993.61
2018-03-29T00:27:15.245Z,993.59
2018-03-29T00:28:15.199Z,993.61
2018-03-29T00:29:15.167Z,993.62
2018-03-29T00:30:15.130Z,993.58
2018-03-29T00:31:15.103Z,993.61
2018-03-29T00:32:15.064Z,993.63
2018-03-29T00:33:15.034Z,993.66
2018-03-29T00:34:15.001Z,993.68
2018-03-29T00:35:15.003Z,993.67
2018-03-29T00:36:14.935Z,993.70
2018-03-29T00:37:14.899Z,993.69
2018-03-29T00:38:14.867Z,993.73
2018-03-29T00:39:14.834Z,993.71
2018-03-29T00:40:14.800Z,993.72
2018-03-29T00:41:14.768Z,993.76
2018-03-29T00:42:14.736Z,993.75
2018-03-29T00:43:15.002Z,993.76
2018-03-29T00:44:14.681Z,993.72
2018-03-29T00:45:14.637Z,993.76
2018-03-29T00:46:14.604Z,993.76
2018-03-29T00:47:14.572Z,993.78
2018-03-29T00:48:14.543Z,993.81
2018-03-29T00:49:14.506Z,993.75
2018-03-29T00:50:14.473Z,993.79
2018-03-29T00:51:14.443Z,993.76
2018-03-29T00:52:14.407Z,993.80
2018-03-29T00:53:14.379Z,993.77
2018-03-29T00:54:14.342Z,993.74
2018-03-29T00:55:14.559Z,993.78
2018-03-29T00:56:14.276Z,993.80
2018-03-29T00:57:14.244Z,993.80
2018-03-29T00:58:14.211Z,993.78
2018-03-29T00:59:14.183Z,993.80
2018-03-29T01:00:14.147Z,993.80
2018-03-29T01:01:14.113Z,993.82
2018-03-29T01:02:14.081Z,993.84
2018-03-29T01:03:14.047Z,993.82
2018-03-29T01:04:14.014Z,993.81
2018-03-29T01:05:13.981Z,993.78
2018-03-29T01:06:13.949Z,993.81
2018-03-29T01:07:14.167Z,993.78
2018-03-29T01:08:13.892Z,993.79
2018-03-29T01:09:13.859Z,993.80
2018-03-29T01:10:13.818Z,993.80
2018-03-29T01:11:13.787Z,993.82
2018-03-29T01:12:13.752Z,993.81
2018-03-29T01:13:14.019Z,993.84
2018-03-29T01:14:13.688Z,993.79
2018-03-29T01:15:13.653Z,993.83
2018-03-29T01:16:13.621Z,993.81
2018-03-29T01:17:13.588Z,993.84
2018-03-29T01:18:13.555Z,993.83
2018-03-29T01:19:13.521Z,993.85
2018-03-29T01:20:13.491Z,993.79
2018-03-29T01:21:13.457Z,993.83
2018-03-29T01:22:13.424Z,993.81
2018-03-29T01:23:13.390Z,993.88
2018-03-29T01:24:13.357Z,993.84
2018-03-29T01:25:13.325Z,993.82
2018-03-29T01:26:13.292Z,993.88
2018-03-29T01:27:13.260Z,993.89
2018-03-29T01:28:13.226Z,993.91
2018-03-29T01:29:13.194Z,993.89
2018-03-29T01:30:13.163Z,993.90
2018-03-29T01:31:13.133Z,993.94
2018-03-29T01:32:13.095Z,993.95
2018-03-29T01:33:13.063Z,993.99
2018-03-29T01:34:13.034Z,993.97
2018-03-29T01:35:13.000Z,993.96
2018-03-29T01:36:12.970Z,994.03
2018-03-29T01:37:12.932Z,994.02
2018-03-29T01:38:12.898Z,994.03
2018-03-29T01:39:12.866Z,994.01
2018-03-29T01:40:12.834Z,994.01
2018-03-29T01:41:12.800Z,993.98
2018-03-29T01:42:12.768Z,994.02
2018-03-29T01:43:12.734Z,994.02
2018-03-29T01:44:12.703Z,994.03
2018-03-29T01:45:12.669Z,994.03
2018-03-29T01:46:12.639Z,994.05
2018-03-29T01:47:12.605Z,994.05
2018-03-29T01:48:12.570Z,994.05
2018-03-29T01:49:12.738Z,994.03
2018-03-29T01:50:12.505Z,994.03
2018-03-29T01:51:12.475Z,994.08
2018-03-29T01:52:12.440Z,994.06
2018-03-29T01:53:12.407Z,994.03
2018-03-29T01:54:12.384Z,994.08
2018-03-29T01:55:12.341Z,994.08
2018-03-29T01:56:12.308Z,994.14
2018-03-29T01:57:12.280Z,994.08
2018-03-29T01:58:12.246Z,994.11
2018-03-29T01:59:12.212Z,994.14
2018-03-29T02:00:12.177Z,994.13
2018-03-29T02:01:12.145Z,994.16
2018-03-29T02:02:12.111Z,994.13
2018-03-29T02:03:12.083Z,994.16
2018-03-29T02:04:12.050Z,994.19
2018-03-29T02:05:12.012Z,994.18
2018-03-29T02:06:11.998Z,994.16
2018-03-29T02:07:11.949Z,994.18
2018-03-29T02:08:11.913Z,994.17
2018-03-29T02:09:11.889Z,994.19
2018-03-29T02:10:11.848Z,994.19
2018-03-29T02:11:11.815Z,994.19
2018-03-29T02:12:12.033Z,994.20
2018-03-29T02:13:11.755Z,994.23
2018-03-29T02:14:11.719Z,994.24
2018-03-29T02:15:11.684Z,994.24
2018-03-29T02:16:11.651Z,994.22
2018-03-29T02:17:11.628Z,994.27
2018-03-29T02:18:11.643Z,994.27
2018-03-29T02:19:11.554Z,994.27
2018-03-29T02:20:11.519Z,994.26
2018-03-29T02:21:11.497Z,994.29
2018-03-29T02:22:11.454Z,994.26
2018-03-29T02:23:11.420Z,994.33
2018-03-29T02:24:11.388Z,994.31
2018-03-29T02:25:11.355Z,994.31
2018-03-29T02:26:11.324Z,994.34
2018-03-29T02:27:11.302Z,994.34
2018-03-29T02:28:11.256Z,994.32
2018-03-29T02:29:11.226Z,994.32
2018-03-29T02:30:11.196Z,994.32
2018-03-29T02:31:11.163Z,994.35
2018-03-29T02:32:11.125Z,994.37
2018-03-29T02:33:11.092Z,994.39
2018-03-29T02:34:11.060Z,994.43
2018-03-29T02:35:11.030Z,994.38
2018-03-29T02:36:10.997Z,994.45
2018-03-29T02:37:10.962Z,994.45
2018-03-29T02:38:10.928Z,994.44
2018-03-29T02:39:10.897Z,994.47
2018-03-29T02:40:10.864Z,994.44
2018-03-29T02:41:11.130Z,994.44
2018-03-29T02:42:10.796Z,994.51
2018-03-29T02:43:10.767Z,994.54
2018-03-29T02:44:10.731Z,994.54
2018-03-29T02:45:10.701Z,994.54
2018-03-29T02:46:10.666Z,994.58
2018-03-29T02:47:10.633Z,994.59
2018-03-29T02:48:10.598Z,994.60
2018-03-29T02:49:10.565Z,994.58
2018-03-29T02:50:10.541Z,994.59
2018-03-29T02:51:10.500Z,994.63
2018-03-29T02:52:10.473Z,994.62
2018-03-29T02:53:10.435Z,994.61
2018-03-29T02:54:10.418Z,994.69
2018-03-29T02:55:10.368Z,994.61
2018-03-29T02:56:10.335Z,994.68
2018-03-29T02:57:10.304Z,994.69
2018-03-29T02:58:10.273Z,994.70
2018-03-29T02:59:10.242Z,994.66
2018-03-29T03:00:10.204Z,994.70
2018-03-29T03:01:10.172Z,994.73
2018-03-29T03:02:10.138Z,994.78
2018-03-29T03:03:10.106Z,994.70
2018-03-29T03:04:10.072Z,994.75
2018-03-29T03:05:10.040Z,994.78
2018-03-29T03:06:10.007Z,994.78
2018-03-29T03:07:09.974Z,994.77
2018-03-29T03:08:09.942Z,994.79
2018-03-29T03:09:09.908Z,994.79
2018-03-29T03:10:09.875Z,994.82
2018-03-29T03:11:09.846Z,994.80
2018-03-29T03:12:09.812Z,994.86
2018-03-29T03:13:09.779Z,994.85
2018-03-29T03:14:09.743Z,994.87
2018-03-29T03:15:09.709Z,994.84
2018-03-29T03:16:09.677Z,994.89
2018-03-29T03:17:09.645Z,994.85
2018-03-29T03:18:09.612Z,994.91
2018-03-29T03:19:09.577Z,994.88
2018-03-29T03:20:09.545Z,994.93
2018-03-29T03:21:09.518Z,994.91
2018-03-29T03:22:09.482Z,994.92
2018-03-29T03:23:09.452Z,994.90
2018-03-29T03:24:09.414Z,994.91
2018-03-29T03:25:09.381Z,994.99
2018-03-29T03:26:09.348Z,994.93
2018-03-29T03:27:09.315Z,994.99
2018-03-29T03:28:09.282Z,994.98
2018-03-29T03:29:09.250Z,995.02
2018-03-29T03:30:09.225Z,994.96
2018-03-29T03:31:09.186Z,995.02
2018-03-29T03:32:09.151Z,995.04
2018-03-29T03:33:09.118Z,995.06
2018-03-29T03:34:09.086Z,995.05
2018-03-29T03:35:09.052Z,995.07
2018-03-29T03:36:09.020Z,995.05
2018-03-29T03:37:09.041Z,995.07
2018-03-29T03:38:08.954Z,995.08
2018-03-29T03:39:08.921Z,995.09
2018-03-29T03:40:08.892Z,995.14
2018-03-29T03:41:08.856Z,995.13
2018-03-29T03:42:08.823Z,995.14
2018-03-29T03:43:08.791Z,995.15
2018-03-29T03:44:09.007Z,995.19
2018-03-29T03:45:08.724Z,995.23
2018-03-29T03:46:08.692Z,995.17
2018-03-29T03:47:08.658Z,995.24
2018-03-29T03:48:08.628Z,995.20
2018-03-29T03:49:08.593Z,995.19
2018-03-29T03:50:08.563Z,995.24
2018-03-29T03:51:08.528Z,995.20
2018-03-29T03:52:08.494Z,995.23
2018-03-29T03:53:08.462Z,995.21
2018-03-29T03:54:08.429Z,995.30
2018-03-29T03:55:08.396Z,995.33
2018-03-29T03:56:08.363Z,995.34
2018-03-29T03:57:08.331Z,995.40
2018-03-29T03:58:08.298Z,995.45
2018-03-29T03:59:08.265Z,995.38
2018-03-29T04:00:08.232Z,995.42
2018-03-29T04:01:08.199Z,995.42
2018-03-29T04:02:08.168Z,995.50
2018-03-29T04:03:08.134Z,995.50
2018-03-29T04:04:08.100Z,995.48
2018-03-29T04:05:08.070Z,995.54
2018-03-29T04:06:08.036Z,995.56
2018-03-29T04:07:08.003Z,995.50
2018-03-29T04:08:08.270Z,995.51
2018-03-29T04:09:07.937Z,995.54
2018-03-29T04:10:07.905Z,995.51
2018-03-29T04:11:07.871Z,995.57
2018-03-29T04:12:07.838Z,995.56
2018-03-29T04:13:07.806Z,995.60
2018-03-29T04:14:08.070Z,995.63
2018-03-29T04:15:07.744Z,995.66
2018-03-29T04:16:07.708Z,995.64
2018-03-29T04:17:07.679Z,995.69
2018-03-29T04:18:07.642Z,995.74
2018-03-29T04:19:07.609Z,995.70
2018-03-29T04:20:07.576Z,995.75
2018-03-29T04:21:07.544Z,995.74
2018-03-29T04:22:07.512Z,995.74
2018-03-29T04:23:07.481Z,995.78
2018-03-29T04:24:07.445Z,995.80
2018-03-29T04:25:07.413Z,995.88
2018-03-29T04:26:07.379Z,995.85
2018-03-29T04:27:07.347Z,995.86
2018-03-29T04:28:07.315Z,995.87
2018-03-29T04:29:07.283Z,995.91
2018-03-29T04:30:07.250Z,995.89
2018-03-29T04:31:07.225Z,995.92
2018-03-29T04:32:07.183Z,995.94
2018-03-29T04:33:07.150Z,995.94
2018-03-29T04:34:07.118Z,995.92
2018-03-29T04:35:07.084Z,995.99
2018-03-29T04:36:07.052Z,995.97
2018-03-29T04:37:07.021Z,995.96
2018-03-29T04:38:06.989Z,995.98
2018-03-29T04:39:06.953Z,995.98
2018-03-29T04:40:06.938Z,995.94
2018-03-29T04:41:06.887Z,996.07
2018-03-29T04:42:06.855Z,996.01
2018-03-29T04:43:07.123Z,996.08
2018-03-29T04:44:06.789Z,996.08
2018-03-29T04:45:06.756Z,996.04
2018-03-29T04:46:06.725Z,996.05
2018-03-29T04:47:06.693Z,996.08
2018-03-29T04:48:06.659Z,996.11
2018-03-29T04:49:06.625Z,996.16
2018-03-29T04:50:06.594Z,996.14
2018-03-29T04:51:06.559Z,996.16
2018-03-29T04:52:06.526Z,996.16
2018-03-29T04:53:06.496Z,996.21
2018-03-29T04:54:06.516Z,996.22
2018-03-29T04:55:06.430Z,996.24
2018-03-29T04:56:06.397Z,996.24
2018-03-29T04:57:06.363Z,996.25
2018-03-29T04:58:06.330Z,996.21
2018-03-29T04:59:06.307Z,996.32
2018-03-29T05:00:06.266Z,996.35
2018-03-29T05:01:06.233Z,996.37
2018-03-29T05:02:06.203Z,996.34
2018-03-29T05:03:06.168Z,996.40
2018-03-29T05:04:06.132Z,996.43
2018-03-29T05:05:06.100Z,996.46
2018-03-29T05:06:06.068Z,996.46
2018-03-29T05:07:06.034Z,996.39
2018-03-29T05:08:06.002Z,996.50
2018-03-29T05:09:05.969Z,996.46
2018-03-29T05:10:05.940Z,996.47
2018-03-29T05:11:05.904Z,996.57
2018-03-29T05:12:05.871Z,996.54
2018-03-29T05:13:05.839Z,996.57
2018-03-29T05:14:05.806Z,996.55
2018-03-29T05:15:05.772Z,996.58
2018-03-29T05:16:05.740Z,996.75
2018-03-29T05:17:05.708Z,996.74
2018-03-29T05:18:05.728Z,996.68
2018-03-29T05:19:05.642Z,996.67
2018-03-29T05:20:05.608Z,996.84
2018-03-29T05:21:05.577Z,996.72
2018-03-29T05:22:05.547Z,996.82
2018-03-29T05:23:05.510Z,996.77
2018-03-29T05:24:05.781Z,996.89
2018-03-29T05:25:05.445Z,996.88
2018-03-29T05:26:05.412Z,996.81
2018-03-29T05:27:05.380Z,996.84
2018-03-29T05:28:05.347Z,996.88
2018-03-29T05:29:05.314Z,996.91
2018-03-29T05:30:05.287Z,996.88
2018-03-29T05:31:05.254Z,996.87
2018-03-29T05:32:05.215Z,996.93
2018-03-29T05:33:05.182Z,996.97
2018-03-29T05:34:05.150Z,996.86
2018-03-29T05:35:05.117Z,996.97
2018-03-29T05:36:05.088Z,996.89
2018-03-29T05:37:05.051Z,997.00
2018-03-29T05:38:05.019Z,996.94
2018-03-29T05:39:04.990Z,996.98
2018-03-29T05:40:04.960Z,997.00
2018-03-29T05:41:04.922Z,997.05
2018-03-29T05:42:04.888Z,997.14
2018-03-29T05:43:04.854Z,997.09
2018-03-29T05:44:04.828Z,997.10
2018-03-29T05:45:04.790Z,997.17
2018-03-29T05:46:04.758Z,997.14
2018-03-29T05:47:04.731Z,997.13
2018-03-29T05:48:04.691Z,997.20
2018-03-29T05:49:04.658Z,997.17
2018-03-29T05:50:04.626Z,997.24
2018-03-29T05:51:04.610Z,997.28
2018-03-29T05:52:04.560Z,997.22
2018-03-29T05:53:04.830Z,997.26
2018-03-29T05:54:04.507Z,997.24
2018-03-29T05:55:04.468Z,997.30
2018-03-29T05:56:04.430Z,997.30
2018-03-29T05:57:04.398Z,997.35
2018-03-29T05:58:04.368Z,997.39
2018-03-29T05:59:04.331Z,997.41
2018-03-29T06:00:04.298Z,997.45
2018-03-29T06:01:04.266Z,997.43
2018-03-29T06:02:04.234Z,997.55
2018-03-29T06:03:04.221Z,997.43
2018-03-29T06:04:04.418Z,997.42
2018-03-29T06:05:04.135Z,997.29
2018-03-29T06:06:04.119Z,997.42
2018-03-29T06:07:04.072Z,997.50
2018-03-29T06:08:04.037Z,997.52
2018-03-29T06:09:04.008Z,997.41
2018-03-29T06:10:03.977Z,997.51
2018-03-29T06:11:03.946Z,997.56
2018-03-29T06:12:03.907Z,997.65
2018-03-29T06:13:03.874Z,997.58
2018-03-29T06:14:03.842Z,997.60
2018-03-29T06:15:03.809Z,997.67
2018-03-29T06:16:03.778Z,997.52
2018-03-29T06:17:03.746Z,997.70
2018-03-29T06:18:03.712Z,997.58
2018-03-29T06:19:03.678Z,997.59
2018-03-29T06:20:03.646Z,997.59
2018-03-29T06:21:03.614Z,997.52
2018-03-29T06:22:03.581Z,997.59
2018-03-29T06:23:03.550Z,997.62
2018-03-29T06:24:03.515Z,997.73
2018-03-29T06:25:03.493Z,997.59
2018-03-29T06:26:03.454Z,997.73
2018-03-29T06:27:03.418Z,997.65
2018-03-29T06:28:03.386Z,997.76
2018-03-29T06:29:03.354Z,997.68
2018-03-29T06:30:03.323Z,997.63
2018-03-29T06:31:03.289Z,997.78
2018-03-29T06:32:03.258Z,997.83
2018-03-29T06:33:03.232Z,997.89
2018-03-29T06:34:03.195Z,997.83
2018-03-29T06:35:03.160Z,997.83
2018-03-29T06:36:03.134Z,997.93
2018-03-29T06:37:03.098Z,997.97
2018-03-29T06:38:03.065Z,997.92
2018-03-29T06:39:03.030Z,997.92
2018-03-29T06:40:02.999Z,997.95
2018-03-29T06:41:02.993Z,998.02
2018-03-29T06:42:02.935Z,997.95
2018-03-29T06:43:02.908Z,998.02
2018-03-29T06:44:02.870Z,998.11
2018-03-29T06:45:02.838Z,998.09
2018-03-29T06:46:02.813Z,998.04
2018-03-29T06:47:02.782Z,998.06
2018-03-29T06:48:02.742Z,998.09
2018-03-29T06:49:02.710Z,998.06
2018-03-29T06:50:02.682Z,998.08
2018-03-29T06:51:02.649Z,998.12
2018-03-29T06:52:02.614Z,998.23
2018-03-29T06:53:02.582Z,998.19
2018-03-29T06:54:02.550Z,998.31
2018-03-29T06:55:02.563Z,998.29
2018-03-29T06:56:02.491Z,998.31
2018-03-29T06:57:02.465Z,998.25
2018-03-29T06:58:02.423Z,998.20
2018-03-29T06:59:02.390Z,998.37
2018-03-29T07:00:02.366Z,998.36
2018-03-29T07:01:02.338Z,998.35
2018-03-29T07:02:02.295Z,998.44
2018-03-29T07:03:02.265Z,998.49
2018-03-29T07:04:02.231Z,998.55
2018-03-29T07:05:02.202Z,998.48
2018-03-29T07:06:02.176Z,998.51
2018-03-29T07:07:02.135Z,998.52
2018-03-29T07:08:02.107Z,998.52
2018-03-29T07:09:02.074Z,998.54
2018-03-29T07:10:02.042Z,998.53
2018-03-29T07:11:02.011Z,998.60
2018-03-29T07:12:01.983Z,998.65
2018-03-29T07:13:01.948Z,998.67
2018-03-29T07:14:01.916Z,998.63
2018-03-29T07:15:02.246Z,998.67
2018-03-29T07:16:01.861Z,998.72
2018-03-29T07:17:01.827Z,998.78
2018-03-29T07:18:01.792Z,998.79
2018-03-29T07:19:01.762Z,998.78
2018-03-29T07:20:01.728Z,998.74
2018-03-29T07:21:01.697Z,998.75
2018-03-29T07:22:01.673Z,998.79
2018-03-29T07:23:01.642Z,998.78
2018-03-29T07:24:01.604Z,998.72
2018-03-29T07:25:01.573Z,998.74
2018-03-29T07:26:01.547Z,998.77
2018-03-29T07:27:01.511Z,998.75
2018-03-29T07:28:01.480Z,998.80
2018-03-29T07:29:01.448Z,998.75
2018-03-29T07:30:01.443Z,998.77
2018-03-29T07:31:01.390Z,998.91
2018-03-29T07:32:01.382Z,998.85
2018-03-29T07:33:01.330Z,998.84
2018-03-29T07:34:01.297Z,998.83
2018-03-29T07:35:01.272Z,998.91
2018-03-29T07:36:01.234Z,998.85
2018-03-29T07:37:01.204Z,998.86
2018-03-29T07:38:01.171Z,998.92
2018-03-29T07:39:01.139Z,998.90
2018-03-29T07:40:01.109Z,998.91
2018-03-29T07:41:01.079Z,998.97
2018-03-29T07:42:01.048Z,998.96
2018-03-29T07:43:01.017Z,998.89
2018-03-29T07:44:00.987Z,998.88
2018-03-29T07:45:00.958Z,998.93
2018-03-29T07:46:00.930Z,999.21
2018-03-29T07:47:00.896Z,999.04
2018-03-29T07:48:00.865Z,999.09
2018-03-29T07:49:00.836Z,999.04
2018-03-29T07:50:00.805Z,999.10
2018-03-29T07:51:00.777Z,999.07
2018-03-29T07:52:00.743Z,999.15
2018-03-29T07:53:00.715Z,999.06
2018-03-29T07:54:00.682Z,999.15
2018-03-29T07:55:00.652Z,999.25
2018-03-29T07:56:00.627Z,999.18
2018-03-29T07:57:00.610Z,999.23
2018-03-29T07:58:00.564Z,999.17
2018-03-29T07:59:00.530Z,999.20
2018-03-29T08:00:00.500Z,999.09
2018-03-29T08:01:00.478Z,999.03
2018-03-29T08:02:00.442Z,999.19
2018-03-29T08:03:00.416Z,999.19
2018-03-29T08:04:00.379Z,999.18
2018-03-29T08:05:00.361Z,999.26
2018-03-29T08:06:00.351Z,999.22
2018-03-29T08:07:00.300Z,999.14
2018-03-29T08:08:00.258Z,999.21
2018-03-29T08:09:00.238Z,999.23
2018-03-29T08:10:00.212Z,999.31
2018-03-29T08:11:00.178Z,999.23
2018-03-29T08:12:00.137Z,999.32
2018-03-29T08:13:00.108Z,999.26
2018-03-29T08:14:00.079Z,999.43
2018-03-29T08:15:00.385Z,999.41
2018-03-29T08:16:00.018Z,999.38
2018-03-29T08:17:00.011Z,999.48
2018-03-29T08:17:59.975Z,999.33
2018-03-29T08:18:59.934Z,999.26
2018-03-29T08:19:59.899Z,999.38
2018-03-29T08:20:59.868Z,999.47
2018-03-29T08:21:59.844Z,999.33
2018-03-29T08:22:59.808Z,999.41
2018-03-29T08:23:59.782Z,999.41
2018-03-29T08:24:59.749Z,999.48
2018-03-29T08:25:59.722Z,999.51
2018-03-29T08:26:59.690Z,999.39
2018-03-29T08:27:59.661Z,999.34
2018-03-29T08:28:59.631Z,999.44
2018-03-29T08:29:59.602Z,999.46
2018-03-29T08:30:59.574Z,999.48
2018-03-29T08:31:59.547Z,999.36
2018-03-29T08:32:59.515Z,999.47
2018-03-29T08:33:59.486Z,999.56
2018-03-29T08:34:59.455Z,999.50
2018-03-29T08:35:59.430Z,999.59
2018-03-29T08:36:59.396Z,999.48
2018-03-29T08:37:59.366Z,999.55
2018-03-29T08:38:59.338Z,999.54
2018-03-29T08:39:59.310Z,999.59
2018-03-29T08:40:59.284Z,999.69
2018-03-29T08:41:59.253Z,999.69
2018-03-29T08:42:59.222Z,999.96
2018-03-29T08:43:59.191Z,999.88
2018-03-29T08:44:59.463Z,999.90
2018-03-29T08:45:59.133Z,999.86
2018-03-29T08:46:59.104Z,999.80
2018-03-29T08:47:59.109Z,999.77
2018-03-29T08:48:59.052Z,999.78
2018-03-29T08:49:59.019Z,999.82
2018-03-29T08:50:58.991Z,999.79
2018-03-29T08:51:58.962Z,999.89
2018-03-29T08:52:58.935Z,999.89
2018-03-29T08:53:58.907Z,999.96
2018-03-29T08:54:58.877Z,999.89
2018-03-29T08:55:58.852Z,999.96
2018-03-29T08:56:58.822Z,1000.01
2018-03-29T08:57:58.794Z,1000.12
2018-03-29T08:58:58.765Z,1000.03
2018-03-29T08:59:58.740Z,1000.04
2018-03-29T09:00:58.713Z,1000.06
2018-03-29T09:01:58.685Z,1000.04
2018-03-29T09:02:58.665Z,1000.12
2018-03-29T09:03:58.626Z,1000.17
2018-03-29T09:04:58.599Z,1000.12
2018-03-29T09:05:58.570Z,1000.10
2018-03-29T09:06:58.551Z,1000.20
2018-03-29T09:07:58.514Z,1000.15
2018-03-29T09:08:58.495Z,1000.41
2018-03-29T09:09:58.458Z,1000.34
2018-03-29T09:10:58.434Z,1000.33
2018-03-29T09:11:58.402Z,1000.21
2018-03-29T09:12:58.375Z,1000.28
2018-03-29T09:13:58.352Z,1000.38
2018-03-29T09:14:58.320Z,1000.30
2018-03-29T09:15:58.295Z,1000.52
2018-03-29T09:16:58.265Z,1000.44
2018-03-29T09:17:58.240Z,1000.41
2018-03-29T09:18:58.238Z,1000.32
2018-03-29T09:19:58.184Z,1000.38
2018-03-29T09:20:58.212Z,1000.51
2018-03-29T09:21:58.137Z,1000.68
2018-03-29T09:22:58.104Z,1000.48
2018-03-29T09:23:58.085Z,1000.41
2018-03-29T09:24:58.068Z,1000.38
2018-03-29T09:25:58.026Z,1000.40
2018-03-29T09:26:57.999Z,1000.42
2018-03-29T09:27:57.982Z,1000.35
2018-03-29T09:28:57.944Z,1000.33
2018-03-29T09:29:57.924Z,1000.35
2018-03-29T09:30:57.892Z,1000.31
2018-03-29T09:31:57.871Z,1000.26
2018-03-29T09:32:57.841Z,1000.27
2018-03-29T09:33:57.811Z,1000.35
2018-03-29T09:34:57.784Z,1000.36
2018-03-29T09:35:57.758Z,1000.44
2018-03-29T09:36:57.731Z,1000.28
2018-03-29T09:37:57.707Z,1000.36
2018-03-29T09:38:57.927Z,1000.32
2018-03-29T09:39:57.650Z,1000.34
2018-03-29T09:40:57.626Z,1000.28
2018-03-29T09:41:57.595Z,1000.36
2018-03-29T09:42:57.567Z,1000.41
2018-03-29T09:43:57.547Z,1000.54
2018-03-29T09:44:57.515Z,1000.64
2018-03-29T09:45:57.492Z,1000.61
2018-03-29T09:46:57.459Z,1000.64
2018-03-29T09:47:57.433Z,1000.62
2018-03-29T09:48:57.406Z,1000.65
2018-03-29T09:49:57.378Z,1000.51
2018-03-29T09:50:57.349Z,1000.51
2018-03-29T09:51:57.344Z,1000.56
2018-03-29T09:52:57.303Z,1000.54
2018-03-29T09:53:57.269Z,1000.56
2018-03-29T09:54:57.244Z,1000.63
2018-03-29T09:55:57.213Z,1000.69
2018-03-29T09:56:57.193Z,1000.60
2018-03-29T09:57:57.161Z,1000.63
2018-03-29T09:58:57.136Z,1000.75
2018-03-29T09:59:57.105Z,1000.72
2018-03-29T10:00:57.078Z,1000.68
2018-03-29T10:01:57.052Z,1000.78
2018-03-29T10:02:57.029Z,1000.74
2018-03-29T10:03:56.996Z,1000.66
2018-03-29T10:04:56.975Z,1000.75
2018-03-29T10:05:56.944Z,1000.71
2018-03-29T10:06:56.921Z,1000.86
2018-03-29T10:07:56.890Z,1000.85
2018-03-29T10:08:56.868Z,1000.91
2018-03-29T10:09:56.837Z,1000.94
2018-03-29T10:10:56.810Z,1000.91
2018-03-29T10:11:56.783Z,1000.97
2018-03-29T10:12:56.757Z,1001.03
2018-03-29T10:13:56.731Z,1001.06
2018-03-29T10:14:56.702Z,1001.08
2018-03-29T10:15:56.676Z,1000.96
2018-03-29T10:16:56.650Z,1001.05
2018-03-29T10:17:56.627Z,1001.06
2018-03-29T10:18:56.601Z,1001.01
2018-03-29T10:19:56.574Z,1000.98
2018-03-29T10:20:56.547Z,1000.94
2018-03-29T10:21:56.530Z,1000.82
2018-03-29T10:22:56.493Z,1000.87
2018-03-29T10:23:56.467Z,1000.89
2018-03-29T10:24:56.441Z,1000.88
2018-03-29T10:25:56.416Z,1000.81
2018-03-29T10:26:56.393Z,1000.76
2018-03-29T10:27:56.366Z,1000.82
2018-03-29T10:28:56.339Z,1000.82
2018-03-29T10:29:56.314Z,1000.73
2018-03-29T10:30:56.283Z,1000.76
2018-03-29T10:31:56.258Z,1000.80
2018-03-29T10:32:56.234Z,1000.71
2018-03-29T10:33:56.208Z,1000.83
2018-03-29T10:34:56.176Z,1000.74
2018-03-29T10:35:56.186Z,1000.88
2018-03-29T10:36:56.163Z,1000.85
2018-03-29T10:37:56.095Z,1000.82
2018-03-29T10:38:56.077Z,1000.91
2018-03-29T10:39:56.055Z,1000.89
2018-03-29T10:40:56.032Z,1000.87
2018-03-29T10:41:56.018Z,1000.85
2018-03-29T10:42:55.969Z,1000.91
2018-03-29T10:43:55.942Z,1000.91
2018-03-29T10:44:55.905Z,1000.92
2018-03-29T10:45:55.881Z,1000.93
2018-03-29T10:46:55.853Z,1001.02
2018-03-29T10:47:55.824Z,1000.98
2018-03-29T10:48:55.794Z,1000.99
2018-03-29T10:49:55.789Z,1001.03
2018-03-29T10:50:55.792Z,1000.98
2018-03-29T10:51:55.711Z,1000.99
2018-03-29T10:52:55.684Z,1000.98
2018-03-29T10:53:55.655Z,1001.00
2018-03-29T10:54:55.627Z,1000.96
2018-03-29T10:55:55.600Z,1000.99
2018-03-29T10:56:55.573Z,1001.00
2018-03-29T10:57:55.544Z,1001.10
2018-03-29T10:58:55.523Z,1001.02
2018-03-29T10:59:55.508Z,1001.03
2018-03-29T11:00:55.461Z,1001.02
2018-03-29T11:01:55.433Z,1001.02
2018-03-29T11:02:55.404Z,1001.04
2018-03-29T11:03:55.381Z,1001.03
2018-03-29T11:04:55.351Z,1001.15
2018-03-29T11:05:55.322Z,1001.13
2018-03-29T11:06:55.293Z,1001.04
2018-03-29T11:07:55.266Z,1001.05
2018-03-29T11:08:55.237Z,1001.08
2018-03-29T11:09:55.213Z,1001.08
2018-03-29T11:10:55.190Z,1001.15
2018-03-29T11:11:55.152Z,1001.12
2018-03-29T11:12:55.123Z,1001.21
2018-03-29T11:13:55.096Z,1001.25
2018-03-29T11:14:55.072Z,1001.28
2018-03-29T11:15:55.048Z,1001.25
2018-03-29T11:16:55.011Z,1001.28
2018-03-29T11:17:54.983Z,1001.29
2018-03-29T11:18:54.953Z,1001.30
2018-03-29T11:19:54.925Z,1001.22
2018-03-29T11:20:54.897Z,1001.22
2018-03-29T11:21:54.867Z,1001.22
2018-03-29T11:22:54.841Z,1001.29
2018-03-29T11:23:54.817Z,1001.25
2018-03-29T11:24:54.783Z,1001.26
2018-03-29T11:25:54.753Z,1001.26
2018-03-29T11:26:54.723Z,1001.29
2018-03-29T11:27:54.695Z,1001.33
2018-03-29T11:28:54.707Z,1001.30
2018-03-29T11:29:54.638Z,1001.37
2018-03-29T11:30:54.612Z,1001.37
2018-03-29T11:31:54.580Z,1001.41
2018-03-29T11:32:54.550Z,1001.36
2018-03-29T11:33:54.523Z,1001.42
2018-03-29T11:34:54.494Z,1001.45
2018-03-29T11:35:54.466Z,1001.49
2018-03-29T11:36:54.751Z,1001.42
2018-03-29T11:37:54.422Z,1001.52
2018-03-29T11:38:54.378Z,1001.50
2018-03-29T11:39:54.352Z,1001.48
2018-03-29T11:40:54.320Z,1001.53
2018-03-29T11:41:54.295Z,1001.59
2018-03-29T11:42:54.562Z,1001.58
2018-03-29T11:43:54.233Z,1001.57
2018-03-29T11:44:54.205Z,1001.55
2018-03-29T11:45:54.176Z,1001.54
2018-03-29T11:46:54.148Z,1001.64
2018-03-29T11:47:54.118Z,1001.61
2018-03-29T11:48:54.089Z,1001.67
2018-03-29T11:49:54.061Z,1001.74
2018-03-29T11:50:54.034Z,1001.71
2018-03-29T11:51:54.002Z,1001.66
2018-03-29T11:52:54.005Z,1001.69
2018-03-29T11:53:53.944Z,1001.72
2018-03-29T11:54:53.966Z,1001.77
2018-03-29T11:55:53.886Z,1001.76
2018-03-29T11:56:53.875Z,1001.70
2018-03-29T11:57:53.873Z,1001.70
2018-03-29T11:58:53.801Z,1001.65
2018-03-29T11:59:53.774Z,1001.71
2018-03-29T12:00:53.743Z,1001.62
2018-03-29T12:01:53.714Z,1001.74
2018-03-29T12:02:53.685Z,1001.69
2018-03-29T12:03:53.657Z,1001.77
2018-03-29T12:04:53.630Z,1001.79
2018-03-29T12:05:53.671Z,1001.81
2018-03-29T12:06:53.570Z,1001.78
2018-03-29T12:07:53.546Z,1001.77
2018-03-29T12:08:53.522Z,1001.67
2018-03-29T12:09:53.495Z,1001.78
2018-03-29T12:10:53.457Z,1001.80
2018-03-29T12:11:53.429Z,1001.89
2018-03-29T12:12:53.400Z,1001.92
2018-03-29T12:13:53.373Z,1002.04
2018-03-29T12:14:53.344Z,1001.89
2018-03-29T12:15:53.316Z,1001.89
2018-03-29T12:16:53.333Z,1001.82
2018-03-29T12:17:53.327Z,1001.85
2018-03-29T12:18:53.241Z,1001.77
2018-03-29T12:19:53.224Z,1001.81
2018-03-29T12:20:53.198Z,1001.80
2018-03-29T12:21:53.165Z,1001.87